sensor_id;sensor_type;location;lat;lon;timestamp;P1;durP1;ratioP1;P2;durP2;ratioP2
16393;SDS011;8306;51.128;4.476;2022-08-07T00:00:36;2.93;;;2.20;;
16393;SDS011;8306;51.128;4.476;2022-08-07T00:03:02;1.67;;;1.57;;
16393;SDS011;8306;51.128;4.476;2022-08-07T00:05:29;2.57;;;1.93;;
16393;SDS011;8306;51.128;4.476;2022-08-07T00:07:55;2.33;;;2.13;;
16393;SDS011;8306;51.128;4.476;2022-08-07T00:10:22;2.20;;;1.80;;
16393;SDS011;8306;51.128;4.476;2022-08-07T00:12:48;2.80;;;2.07;;
16393;SDS011;8306;51.128;4.476;2022-08-07T00:15:15;2.83;;;1.97;;
16393;SDS011;8306;51.128;4.476;2022-08-07T00:17:41;2.37;;;2.13;;
16393;SDS011;8306;51.128;4.476;2022-08-07T00:20:08;3.17;;;2.10;;
16393;SDS011;8306;51.128;4.476;2022-08-07T00:22:34;2.10;;;1.90;;
16393;SDS011;8306;51.128;4.476;2022-08-07T00:25:05;2.70;;;2.43;;
16393;SDS011;8306;51.128;4.476;2022-08-07T00:27:27;2.77;;;1.87;;
16393;SDS011;8306;51.128;4.476;2022-08-07T00:29:54;2.27;;;2.07;;
16393;SDS011;8306;51.128;4.476;2022-08-07T00:32:20;2.10;;;1.90;;
16393;SDS011;8306;51.128;4.476;2022-08-07T00:34:47;2.20;;;2.00;;
16393;SDS011;8306;51.128;4.476;2022-08-07T00:37:14;3.87;;;2.27;;
16393;SDS011;8306;51.128;4.476;2022-08-07T00:39:42;2.33;;;2.00;;
16393;SDS011;8306;51.128;4.476;2022-08-07T00:42:08;4.03;;;2.57;;
16393;SDS011;8306;51.128;4.476;2022-08-07T00:44:35;2.53;;;2.30;;
16393;SDS011;8306;51.128;4.476;2022-08-07T00:47:02;2.93;;;2.33;;
16393;SDS011;8306;51.128;4.476;2022-08-07T00:49:28;2.60;;;2.40;;
16393;SDS011;8306;51.128;4.476;2022-08-07T00:51:54;3.47;;;2.73;;
16393;SDS011;8306;51.128;4.476;2022-08-07T00:54:21;3.37;;;2.20;;
16393;SDS011;8306;51.128;4.476;2022-08-07T00:56:48;2.53;;;2.30;;
16393;SDS011;8306;51.128;4.476;2022-08-07T00:59:14;2.30;;;2.10;;
16393;SDS011;8306;51.128;4.476;2022-08-07T01:01:40;3.23;;;2.53;;
16393;SDS011;8306;51.128;4.476;2022-08-07T01:04:07;2.77;;;2.50;;
16393;SDS011;8306;51.128;4.476;2022-08-07T01:06:33;2.47;;;2.27;;
16393;SDS011;8306;51.128;4.476;2022-08-07T01:09:00;2.37;;;2.20;;
16393;SDS011;8306;51.128;4.476;2022-08-07T01:11:29;2.70;;;2.50;;
16393;SDS011;8306;51.128;4.476;2022-08-07T01:13:56;2.43;;;2.23;;
16393;SDS011;8306;51.128;4.476;2022-08-07T01:16:22;2.97;;;2.60;;
16393;SDS011;8306;51.128;4.476;2022-08-07T01:18:49;3.13;;;2.20;;
16393;SDS011;8306;51.128;4.476;2022-08-07T01:21:16;3.23;;;2.47;;
16393;SDS011;8306;51.128;4.476;2022-08-07T01:23:43;3.13;;;2.20;;
16393;SDS011;8306;51.128;4.476;2022-08-07T01:26:09;2.53;;;2.30;;
16393;SDS011;8306;51.128;4.476;2022-08-07T01:28:35;2.80;;;2.20;;
16393;SDS011;8306;51.128;4.476;2022-08-07T01:31:01;3.40;;;2.37;;
16393;SDS011;8306;51.128;4.476;2022-08-07T01:33:28;2.30;;;2.10;;
16393;SDS011;8306;51.128;4.476;2022-08-07T01:35:55;2.50;;;2.30;;
16393;SDS011;8306;51.128;4.476;2022-08-07T01:38:21;2.43;;;2.23;;
16393;SDS011;8306;51.128;4.476;2022-08-07T01:40:47;2.87;;;2.60;;
16393;SDS011;8306;51.128;4.476;2022-08-07T01:43:13;3.20;;;2.43;;
16393;SDS011;8306;51.128;4.476;2022-08-07T01:45:40;2.57;;;2.20;;
16393;SDS011;8306;51.128;4.476;2022-08-07T01:48:06;3.03;;;2.67;;
16393;SDS011;8306;51.128;4.476;2022-08-07T01:50:35;2.70;;;2.50;;
16393;SDS011;8306;51.128;4.476;2022-08-07T01:52:59;2.43;;;2.23;;
16393;SDS011;8306;51.128;4.476;2022-08-07T01:55:27;3.33;;;2.87;;
16393;SDS011;8306;51.128;4.476;2022-08-07T01:57:54;3.20;;;2.90;;
16393;SDS011;8306;51.128;4.476;2022-08-07T02:00:19;2.87;;;2.60;;
16393;SDS011;8306;51.128;4.476;2022-08-07T02:02:48;2.50;;;2.40;;
16393;SDS011;8306;51.128;4.476;2022-08-07T02:05:13;3.00;;;2.80;;
16393;SDS011;8306;51.128;4.476;2022-08-07T02:07:40;3.47;;;3.17;;
16393;SDS011;8306;51.128;4.476;2022-08-07T02:10:05;3.33;;;3.03;;
16393;SDS011;8306;51.128;4.476;2022-08-07T02:12:32;3.07;;;2.87;;
16393;SDS011;8306;51.128;4.476;2022-08-07T02:14:58;3.17;;;2.40;;
16393;SDS011;8306;51.128;4.476;2022-08-07T02:17:24;2.90;;;2.70;;
16393;SDS011;8306;51.128;4.476;2022-08-07T02:19:51;3.30;;;3.07;;
16393;SDS011;8306;51.128;4.476;2022-08-07T02:22:17;2.93;;;2.67;;
16393;SDS011;8306;51.128;4.476;2022-08-07T02:24:47;3.23;;;2.60;;
16393;SDS011;8306;51.128;4.476;2022-08-07T02:27:14;3.50;;;3.03;;
16393;SDS011;8306;51.128;4.476;2022-08-07T02:29:40;3.03;;;2.60;;
16393;SDS011;8306;51.128;4.476;2022-08-07T02:32:06;3.30;;;3.00;;
16393;SDS011;8306;51.128;4.476;2022-08-07T02:34:32;3.30;;;3.00;;
16393;SDS011;8306;51.128;4.476;2022-08-07T02:36:59;2.93;;;2.67;;
16393;SDS011;8306;51.128;4.476;2022-08-07T02:39:26;3.40;;;3.10;;
16393;SDS011;8306;51.128;4.476;2022-08-07T02:41:52;3.30;;;3.07;;
16393;SDS011;8306;51.128;4.476;2022-08-07T02:44:19;3.83;;;2.97;;
16393;SDS011;8306;51.128;4.476;2022-08-07T02:46:45;4.17;;;3.50;;
16393;SDS011;8306;51.128;4.476;2022-08-07T02:49:15;3.60;;;3.30;;
16393;SDS011;8306;51.128;4.476;2022-08-07T02:51:41;4.17;;;3.77;;
16393;SDS011;8306;51.128;4.476;2022-08-07T02:54:08;4.43;;;4.03;;
16393;SDS011;8306;51.128;4.476;2022-08-07T02:56:34;4.27;;;3.97;;
16393;SDS011;8306;51.128;4.476;2022-08-07T02:59:01;4.13;;;3.73;;
16393;SDS011;8306;51.128;4.476;2022-08-07T03:01:27;3.43;;;3.13;;
16393;SDS011;8306;51.128;4.476;2022-08-07T03:03:54;3.60;;;3.30;;
16393;SDS011;8306;51.128;4.476;2022-08-07T03:06:20;5.43;;;4.47;;
16393;SDS011;8306;51.128;4.476;2022-08-07T03:08:46;4.73;;;4.33;;
16393;SDS011;8306;51.128;4.476;2022-08-07T03:11:13;4.47;;;3.93;;
16393;SDS011;8306;51.128;4.476;2022-08-07T03:13:40;4.20;;;3.90;;
16393;SDS011;8306;51.128;4.476;2022-08-07T03:16:06;4.47;;;4.13;;
16393;SDS011;8306;51.128;4.476;2022-08-07T03:18:32;4.77;;;4.40;;
16393;SDS011;8306;51.128;4.476;2022-08-07T03:20:59;4.47;;;4.13;;
16393;SDS011;8306;51.128;4.476;2022-08-07T03:23:25;4.47;;;4.17;;
16393;SDS011;8306;51.128;4.476;2022-08-07T03:25:52;5.07;;;4.67;;
16393;SDS011;8306;51.128;4.476;2022-08-07T03:28:18;4.70;;;4.33;;
16393;SDS011;8306;51.128;4.476;2022-08-07T03:30:45;4.93;;;4.40;;
16393;SDS011;8306;51.128;4.476;2022-08-07T03:33:12;5.10;;;4.80;;
16393;SDS011;8306;51.128;4.476;2022-08-07T03:35:38;4.47;;;4.07;;
16393;SDS011;8306;51.128;4.476;2022-08-07T03:38:06;4.43;;;4.13;;
16393;SDS011;8306;51.128;4.476;2022-08-07T03:40:31;4.63;;;4.23;;
16393;SDS011;8306;51.128;4.476;2022-08-07T03:42:58;4.77;;;4.47;;
16393;SDS011;8306;51.128;4.476;2022-08-07T03:45:25;5.33;;;4.93;;
16393;SDS011;8306;51.128;4.476;2022-08-07T03:47:51;4.50;;;4.20;;
16393;SDS011;8306;51.128;4.476;2022-08-07T03:50:20;5.00;;;4.70;;
16393;SDS011;8306;51.128;4.476;2022-08-07T03:52:47;4.80;;;4.50;;
16393;SDS011;8306;51.128;4.476;2022-08-07T03:55:13;5.10;;;4.70;;
16393;SDS011;8306;51.128;4.476;2022-08-07T03:57:40;4.40;;;4.10;;
16393;SDS011;8306;51.128;4.476;2022-08-07T04:00:06;5.47;;;4.87;;
16393;SDS011;8306;51.128;4.476;2022-08-07T04:02:33;5.00;;;4.60;;
16393;SDS011;8306;51.128;4.476;2022-08-07T04:04:59;4.63;;;4.33;;
16393;SDS011;8306;51.128;4.476;2022-08-07T04:07:26;5.40;;;5.00;;
16393;SDS011;8306;51.128;4.476;2022-08-07T04:09:52;4.60;;;4.10;;
16393;SDS011;8306;51.128;4.476;2022-08-07T04:12:19;4.63;;;4.20;;
16393;SDS011;8306;51.128;4.476;2022-08-07T04:14:45;5.13;;;4.73;;
16393;SDS011;8306;51.128;4.476;2022-08-07T04:17:12;5.27;;;4.87;;
16393;SDS011;8306;51.128;4.476;2022-08-07T04:19:41;5.80;;;5.30;;
16393;SDS011;8306;51.128;4.476;2022-08-07T04:22:08;5.20;;;4.80;;
16393;SDS011;8306;51.128;4.476;2022-08-07T04:24:34;5.17;;;4.83;;
16393;SDS011;8306;51.128;4.476;2022-08-07T04:27:01;5.90;;;5.40;;
16393;SDS011;8306;51.128;4.476;2022-08-07T04:29:27;5.67;;;5.17;;
16393;SDS011;8306;51.128;4.476;2022-08-07T04:31:54;6.00;;;5.60;;
16393;SDS011;8306;51.128;4.476;2022-08-07T04:34:20;6.63;;;5.27;;
16393;SDS011;8306;51.128;4.476;2022-08-07T04:36:47;6.07;;;5.57;;
16393;SDS011;8306;51.128;4.476;2022-08-07T04:39:13;6.77;;;6.20;;
16393;SDS011;8306;51.128;4.476;2022-08-07T04:41:40;8.90;;;5.70;;
16393;SDS011;8306;51.128;4.476;2022-08-07T04:44:06;6.20;;;5.60;;
16393;SDS011;8306;51.128;4.476;2022-08-07T04:46:41;6.20;;;5.70;;
16393;SDS011;8306;51.128;4.476;2022-08-07T04:49:09;6.50;;;6.00;;
16393;SDS011;8306;51.128;4.476;2022-08-07T04:54:34;5.10;;;4.60;;
16393;SDS011;8306;51.128;4.476;2022-08-07T05:07:53;4.17;;;3.77;;
16393;SDS011;8306;51.128;4.476;2022-08-07T05:10:22;4.10;;;3.70;;
16393;SDS011;8306;51.128;4.476;2022-08-07T05:12:51;3.70;;;3.37;;
16393;SDS011;8306;51.128;4.476;2022-08-07T05:15:21;3.83;;;3.53;;
16393;SDS011;8306;51.128;4.476;2022-08-07T05:17:47;4.20;;;3.90;;
16393;SDS011;8306;51.128;4.476;2022-08-07T05:20:16;4.17;;;3.77;;
16393;SDS011;8306;51.128;4.476;2022-08-07T05:22:42;4.30;;;3.87;;
16393;SDS011;8306;51.128;4.476;2022-08-07T05:25:08;3.83;;;3.50;;
16393;SDS011;8306;51.128;4.476;2022-08-07T05:27:34;4.40;;;3.93;;
16393;SDS011;8306;51.128;4.476;2022-08-07T05:30:01;3.83;;;3.43;;
16393;SDS011;8306;51.128;4.476;2022-08-07T05:32:28;3.40;;;3.10;;
16393;SDS011;8306;51.128;4.476;2022-08-07T05:34:54;4.00;;;3.60;;
16393;SDS011;8306;51.128;4.476;2022-08-07T05:37:21;3.30;;;3.00;;
16393;SDS011;8306;51.128;4.476;2022-08-07T05:39:47;3.90;;;3.60;;
16393;SDS011;8306;51.128;4.476;2022-08-07T05:42:14;3.83;;;3.53;;
16393;SDS011;8306;51.128;4.476;2022-08-07T05:44:40;4.30;;;3.23;;
16393;SDS011;8306;51.128;4.476;2022-08-07T05:47:06;3.50;;;3.20;;
16393;SDS011;8306;51.128;4.476;2022-08-07T05:49:33;3.50;;;3.20;;
16393;SDS011;8306;51.128;4.476;2022-08-07T05:51:59;3.70;;;3.47;;
16393;SDS011;8306;51.128;4.476;2022-08-07T05:54:26;3.73;;;3.53;;
16393;SDS011;8306;51.128;4.476;2022-08-07T05:56:53;3.90;;;3.60;;
16393;SDS011;8306;51.128;4.476;2022-08-07T05:59:19;4.77;;;4.40;;
16393;SDS011;8306;51.128;4.476;2022-08-07T06:01:45;3.97;;;3.67;;
16393;SDS011;8306;51.128;4.476;2022-08-07T06:04:13;3.77;;;3.47;;
16393;SDS011;8306;51.128;4.476;2022-08-07T06:06:38;3.13;;;2.93;;
16393;SDS011;8306;51.128;4.476;2022-08-07T06:09:05;4.00;;;3.70;;
16393;SDS011;8306;51.128;4.476;2022-08-07T06:11:32;4.10;;;3.20;;
16393;SDS011;8306;51.128;4.476;2022-08-07T06:13:58;3.53;;;3.20;;
16393;SDS011;8306;51.128;4.476;2022-08-07T06:16:26;3.07;;;2.70;;
16393;SDS011;8306;51.128;4.476;2022-08-07T06:18:51;3.20;;;3.00;;
16393;SDS011;8306;51.128;4.476;2022-08-07T06:21:17;3.00;;;2.80;;
16393;SDS011;8306;51.128;4.476;2022-08-07T06:23:44;3.33;;;3.00;;
16393;SDS011;8306;51.128;4.476;2022-08-07T06:26:10;2.90;;;2.70;;
16393;SDS011;8306;51.128;4.476;2022-08-07T06:28:49;2.73;;;2.53;;
16393;SDS011;8306;51.128;4.476;2022-08-07T06:31:18;2.67;;;2.47;;
16393;SDS011;8306;51.128;4.476;2022-08-07T06:33:44;2.70;;;2.40;;
16393;SDS011;8306;51.128;4.476;2022-08-07T06:36:14;2.40;;;2.20;;
16393;SDS011;8306;51.128;4.476;2022-08-07T06:38:40;3.77;;;2.30;;
16393;SDS011;8306;51.128;4.476;2022-08-07T06:41:08;3.43;;;2.17;;
16393;SDS011;8306;51.128;4.476;2022-08-07T06:43:36;2.60;;;2.37;;
16393;SDS011;8306;51.128;4.476;2022-08-07T06:46:03;2.10;;;1.90;;
16393;SDS011;8306;51.128;4.476;2022-08-07T06:48:29;2.20;;;2.00;;
16393;SDS011;8306;51.128;4.476;2022-08-07T06:50:57;1.80;;;1.70;;
16393;SDS011;8306;51.128;4.476;2022-08-07T06:53:22;2.40;;;2.20;;
16393;SDS011;8306;51.128;4.476;2022-08-07T06:55:48;2.03;;;1.83;;
16393;SDS011;8306;51.128;4.476;2022-08-07T06:58:15;1.63;;;1.53;;
16393;SDS011;8306;51.128;4.476;2022-08-07T07:00:41;1.97;;;1.87;;
16393;SDS011;8306;51.128;4.476;2022-08-07T07:03:08;1.97;;;1.70;;
16393;SDS011;8306;51.128;4.476;2022-08-07T07:05:35;1.53;;;1.43;;
16393;SDS011;8306;51.128;4.476;2022-08-07T07:08:01;2.43;;;1.80;;
16393;SDS011;8306;51.128;4.476;2022-08-07T07:10:28;1.90;;;1.80;;
16393;SDS011;8306;51.128;4.476;2022-08-07T07:12:55;2.10;;;1.90;;
16393;SDS011;8306;51.128;4.476;2022-08-07T07:15:22;1.73;;;1.63;;
16393;SDS011;8306;51.128;4.476;2022-08-07T07:18:03;2.27;;;1.90;;
16393;SDS011;8306;51.128;4.476;2022-08-07T07:20:38;2.00;;;1.90;;
16393;SDS011;8306;51.128;4.476;2022-08-07T07:23:03;2.03;;;1.87;;
16393;SDS011;8306;51.128;4.476;2022-08-07T07:25:29;1.63;;;1.53;;
16393;SDS011;8306;51.128;4.476;2022-08-07T07:30:49;1.98;;;1.87;;
16393;SDS011;8306;51.128;4.476;2022-08-07T07:33:14;1.85;;;1.75;;
16393;SDS011;8306;51.128;4.476;2022-08-07T07:35:40;2.05;;;1.92;;
16393;SDS011;8306;51.128;4.476;2022-08-07T07:38:06;2.17;;;1.98;;
16393;SDS011;8306;51.128;4.476;2022-08-07T07:40:33;2.37;;;2.10;;
16393;SDS011;8306;51.128;4.476;2022-08-07T07:42:59;2.17;;;1.80;;
16393;SDS011;8306;51.128;4.476;2022-08-07T07:45:26;2.20;;;2.00;;
16393;SDS011;8306;51.128;4.476;2022-08-07T07:47:52;1.90;;;1.80;;
16393;SDS011;8306;51.128;4.476;2022-08-07T07:50:22;2.62;;;2.12;;
16393;SDS011;8306;51.128;4.476;2022-08-07T07:52:48;1.85;;;1.75;;
16393;SDS011;8306;51.128;4.476;2022-08-07T07:55:14;2.22;;;2.03;;
16393;SDS011;8306;51.128;4.476;2022-08-07T07:57:41;2.40;;;2.20;;
16393;SDS011;8306;51.128;4.476;2022-08-07T08:00:07;2.22;;;2.00;;
16393;SDS011;8306;51.128;4.476;2022-08-07T08:02:34;2.00;;;1.90;;
16393;SDS011;8306;51.128;4.476;2022-08-07T08:05:02;1.70;;;1.60;;
16393;SDS011;8306;51.128;4.476;2022-08-07T08:07:27;2.25;;;2.08;;
16393;SDS011;8306;51.128;4.476;2022-08-07T08:09:53;2.05;;;1.90;;
16393;SDS011;8306;51.128;4.476;2022-08-07T08:12:20;2.25;;;2.05;;
16393;SDS011;8306;51.128;4.476;2022-08-07T08:14:46;1.92;;;1.83;;
16393;SDS011;8306;51.128;4.476;2022-08-07T08:17:13;1.98;;;1.87;;
16393;SDS011;8306;51.128;4.476;2022-08-07T08:19:39;2.00;;;1.90;;
16393;SDS011;8306;51.128;4.476;2022-08-07T08:22:06;1.92;;;1.83;;
16393;SDS011;8306;51.128;4.476;2022-08-07T08:24:50;1.85;;;1.75;;
16393;SDS011;8306;51.128;4.476;2022-08-07T08:27:35;2.30;;;1.67;;
16393;SDS011;8306;51.128;4.476;2022-08-07T08:30:11;2.05;;;1.90;;
16393;SDS011;8306;51.128;4.476;2022-08-07T08:32:30;1.90;;;1.80;;
16393;SDS011;8306;51.128;4.476;2022-08-07T08:34:57;2.10;;;1.98;;
16393;SDS011;8306;51.128;4.476;2022-08-07T08:37:23;1.80;;;1.70;;
16393;SDS011;8306;51.128;4.476;2022-08-07T08:39:49;2.33;;;2.17;;
16393;SDS011;8306;51.128;4.476;2022-08-07T08:50:34;1.60;;;1.50;;
16393;SDS011;8306;51.128;4.476;2022-08-07T08:53:31;2.45;;;1.90;;
16393;SDS011;8306;51.128;4.476;2022-08-07T08:55:37;2.05;;;1.90;;
16393;SDS011;8306;51.128;4.476;2022-08-07T09:00:42;1.52;;;1.42;;
16393;SDS011;8306;51.128;4.476;2022-08-07T09:03:18;3.58;;;1.62;;
16393;SDS011;8306;51.128;4.476;2022-08-07T09:05:42;1.75;;;1.60;;
16393;SDS011;8306;51.128;4.476;2022-08-07T09:08:29;1.50;;;1.40;;
16393;SDS011;8306;51.128;4.476;2022-08-07T09:11:10;1.73;;;1.60;;
16393;SDS011;8306;51.128;4.476;2022-08-07T09:19:40;2.25;;;1.50;;
16393;SDS011;8306;51.128;4.476;2022-08-07T09:24:59;1.40;;;1.30;;
16393;SDS011;8306;51.128;4.476;2022-08-07T09:27:50;2.47;;;1.52;;
16393;SDS011;8306;51.128;4.476;2022-08-07T09:30:17;2.10;;;1.70;;
16393;SDS011;8306;51.128;4.476;2022-08-07T09:35:21;1.35;;;1.25;;
16393;SDS011;8306;51.128;4.476;2022-08-07T09:49:11;2.70;;;1.65;;
16393;SDS011;8306;51.128;4.476;2022-08-07T09:54:28;1.85;;;1.70;;
16393;SDS011;8306;51.128;4.476;2022-08-07T09:56:59;1.67;;;1.58;;
16393;SDS011;8306;51.128;4.476;2022-08-07T09:59:57;1.60;;;1.50;;
16393;SDS011;8306;51.128;4.476;2022-08-07T10:13:16;2.80;;;1.70;;
16393;SDS011;8306;51.128;4.476;2022-08-07T10:18:13;1.70;;;1.60;;
16393;SDS011;8306;51.128;4.476;2022-08-07T10:26:05;2.33;;;2.05;;
16393;SDS011;8306;51.128;4.476;2022-08-07T10:31:52;1.80;;;1.70;;
16393;SDS011;8306;51.128;4.476;2022-08-07T10:45:21;1.52;;;1.42;;
16393;SDS011;8306;51.128;4.476;2022-08-07T10:47:46;1.55;;;1.45;;
16393;SDS011;8306;51.128;4.476;2022-08-07T10:50:20;1.45;;;1.35;;
16393;SDS011;8306;51.128;4.476;2022-08-07T10:55:38;4.95;;;4.65;;
16393;SDS011;8306;51.128;4.476;2022-08-07T10:58:17;13.45;;;12.68;;
16393;SDS011;8306;51.128;4.476;2022-08-07T11:04:23;2.58;;;1.40;;
16393;SDS011;8306;51.128;4.476;2022-08-07T11:08:57;1.60;;;1.55;;
16393;SDS011;8306;51.128;4.476;2022-08-07T11:11:20;2.28;;;1.33;;
16393;SDS011;8306;51.128;4.476;2022-08-07T11:13:48;1.20;;;1.10;;
16393;SDS011;8306;51.128;4.476;2022-08-07T11:16:18;1.60;;;1.50;;
16393;SDS011;8306;51.128;4.476;2022-08-07T11:18:53;2.05;;;1.30;;
16393;SDS011;8306;51.128;4.476;2022-08-07T11:23:51;1.50;;;1.40;;
16393;SDS011;8306;51.128;4.476;2022-08-07T11:26:19;1.37;;;1.27;;
16393;SDS011;8306;51.128;4.476;2022-08-07T11:28:51;1.40;;;1.10;;
16393;SDS011;8306;51.128;4.476;2022-08-07T11:31:33;1.37;;;1.30;;
16393;SDS011;8306;51.128;4.476;2022-08-07T11:54:11;2.13;;;1.33;;
16393;SDS011;8306;51.128;4.476;2022-08-07T11:56:09;1.13;;;1.03;;
16393;SDS011;8306;51.128;4.476;2022-08-07T12:04:16;1.43;;;1.33;;
16393;SDS011;8306;51.128;4.476;2022-08-07T12:07:14;1.40;;;1.30;;
16393;SDS011;8306;51.128;4.476;2022-08-07T12:09:48;1.33;;;1.20;;
16393;SDS011;8306;51.128;4.476;2022-08-07T12:12:17;2.47;;;1.13;;
16393;SDS011;8306;51.128;4.476;2022-08-07T12:14:46;2.53;;;1.00;;
16393;SDS011;8306;51.128;4.476;2022-08-07T12:17:16;2.10;;;1.23;;
16393;SDS011;8306;51.128;4.476;2022-08-07T12:19:44;1.80;;;1.17;;
16393;SDS011;8306;51.128;4.476;2022-08-07T12:28:01;1.93;;;1.00;;
16393;SDS011;8306;51.128;4.476;2022-08-07T12:30:27;1.43;;;0.90;;
16393;SDS011;8306;51.128;4.476;2022-08-07T12:35:31;2.07;;;1.20;;
16393;SDS011;8306;51.128;4.476;2022-08-07T12:37:57;3.90;;;1.00;;
16393;SDS011;8306;51.128;4.476;2022-08-07T12:40:31;2.23;;;0.97;;
16393;SDS011;8306;51.128;4.476;2022-08-07T12:42:50;1.00;;;1.00;;
16393;SDS011;8306;51.128;4.476;2022-08-07T12:45:18;1.30;;;1.10;;
16393;SDS011;8306;51.128;4.476;2022-08-07T12:48:03;1.23;;;1.07;;
16393;SDS011;8306;51.128;4.476;2022-08-07T12:50:34;1.10;;;1.00;;
16393;SDS011;8306;51.128;4.476;2022-08-07T12:53:24;1.40;;;1.30;;
16393;SDS011;8306;51.128;4.476;2022-08-07T12:58:17;1.30;;;1.20;;
16393;SDS011;8306;51.128;4.476;2022-08-07T13:14:07;1.53;;;1.00;;
16393;SDS011;8306;51.128;4.476;2022-08-07T13:21:44;1.20;;;1.10;;
16393;SDS011;8306;51.128;4.476;2022-08-07T13:24:25;1.20;;;1.00;;
16393;SDS011;8306;51.128;4.476;2022-08-07T13:26:52;1.27;;;1.07;;
16393;SDS011;8306;51.128;4.476;2022-08-07T13:29:32;2.07;;;1.40;;
16393;SDS011;8306;51.128;4.476;2022-08-07T13:32:09;9.07;;;1.30;;
16393;SDS011;8306;51.128;4.476;2022-08-07T13:34:45;1.77;;;0.97;;
16393;SDS011;8306;51.128;4.476;2022-08-07T13:37:17;2.20;;;1.03;;
16393;SDS011;8306;51.128;4.476;2022-08-07T13:39:42;4.67;;;4.27;;
16393;SDS011;8306;51.128;4.476;2022-08-07T13:42:05;1.20;;;1.20;;
16393;SDS011;8306;51.128;4.476;2022-08-07T13:44:31;1.30;;;1.20;;
16393;SDS011;8306;51.128;4.476;2022-08-07T13:46:58;5.97;;;5.47;;
16393;SDS011;8306;51.128;4.476;2022-08-07T13:49:25;2.40;;;2.03;;
16393;SDS011;8306;51.128;4.476;2022-08-07T13:51:51;1.33;;;1.20;;
16393;SDS011;8306;51.128;4.476;2022-08-07T13:54:17;1.40;;;1.20;;
16393;SDS011;8306;51.128;4.476;2022-08-07T13:56:43;1.17;;;1.07;;
16393;SDS011;8306;51.128;4.476;2022-08-07T13:59:11;1.03;;;0.97;;
16393;SDS011;8306;51.128;4.476;2022-08-07T14:01:44;1.50;;;1.10;;
16393;SDS011;8306;51.128;4.476;2022-08-07T14:04:09;1.20;;;1.10;;
16393;SDS011;8306;51.128;4.476;2022-08-07T14:06:39;2.40;;;2.20;;
16393;SDS011;8306;51.128;4.476;2022-08-07T14:09:08;2.57;;;2.37;;
16393;SDS011;8306;51.128;4.476;2022-08-07T14:11:35;1.83;;;1.73;;
16393;SDS011;8306;51.128;4.476;2022-08-07T14:14:02;1.20;;;1.10;;
16393;SDS011;8306;51.128;4.476;2022-08-07T14:16:29;1.10;;;1.10;;
16393;SDS011;8306;51.128;4.476;2022-08-07T14:18:53;1.40;;;1.30;;
16393;SDS011;8306;51.128;4.476;2022-08-07T14:21:27;2.93;;;1.20;;
16393;SDS011;8306;51.128;4.476;2022-08-07T14:23:59;1.30;;;1.20;;
16393;SDS011;8306;51.128;4.476;2022-08-07T14:26:22;1.30;;;1.30;;
16393;SDS011;8306;51.128;4.476;2022-08-07T14:28:47;2.20;;;2.10;;
16393;SDS011;8306;51.128;4.476;2022-08-07T14:31:14;1.60;;;1.50;;
16393;SDS011;8306;51.128;4.476;2022-08-07T14:33:40;1.63;;;1.43;;
16393;SDS011;8306;51.128;4.476;2022-08-07T14:36:07;1.70;;;1.43;;
16393;SDS011;8306;51.128;4.476;2022-08-07T14:38:33;1.50;;;1.40;;
16393;SDS011;8306;51.128;4.476;2022-08-07T14:41:01;1.10;;;1.10;;
16393;SDS011;8306;51.128;4.476;2022-08-07T14:43:27;1.43;;;1.23;;
16393;SDS011;8306;51.128;4.476;2022-08-07T14:45:56;2.43;;;2.23;;
16393;SDS011;8306;51.128;4.476;2022-08-07T14:48:29;1.47;;;1.37;;
16393;SDS011;8306;51.128;4.476;2022-08-07T14:50:52;1.50;;;1.40;;
16393;SDS011;8306;51.128;4.476;2022-08-07T14:53:18;1.87;;;1.50;;
16393;SDS011;8306;51.128;4.476;2022-08-07T14:55:44;1.90;;;1.50;;
16393;SDS011;8306;51.128;4.476;2022-08-07T14:58:11;2.10;;;1.30;;
16393;SDS011;8306;51.128;4.476;2022-08-07T15:00:38;4.40;;;1.80;;
16393;SDS011;8306;51.128;4.476;2022-08-07T15:03:05;1.10;;;1.10;;
16393;SDS011;8306;51.128;4.476;2022-08-07T15:05:30;1.40;;;1.30;;
16393;SDS011;8306;51.128;4.476;2022-08-07T15:07:57;1.00;;;1.00;;
16393;SDS011;8306;51.128;4.476;2022-08-07T15:10:24;1.20;;;1.20;;
16393;SDS011;8306;51.128;4.476;2022-08-07T15:12:51;1.10;;;1.10;;
16393;SDS011;8306;51.128;4.476;2022-08-07T15:15:20;1.40;;;1.30;;
16393;SDS011;8306;51.128;4.476;2022-08-07T15:17:43;5.60;;;4.00;;
16393;SDS011;8306;51.128;4.476;2022-08-07T15:20:10;2.47;;;1.60;;
16393;SDS011;8306;51.128;4.476;2022-08-07T15:22:45;1.33;;;1.13;;
16393;SDS011;8306;51.128;4.476;2022-08-07T15:25:12;2.40;;;1.50;;
16393;SDS011;8306;51.128;4.476;2022-08-07T15:27:38;2.10;;;1.10;;
16393;SDS011;8306;51.128;4.476;2022-08-07T15:30:07;2.73;;;1.40;;
16393;SDS011;8306;51.128;4.476;2022-08-07T15:32:33;1.90;;;1.80;;
16393;SDS011;8306;51.128;4.476;2022-08-07T15:35:00;1.97;;;1.40;;
16393;SDS011;8306;51.128;4.476;2022-08-07T15:37:33;1.40;;;1.30;;
16393;SDS011;8306;51.128;4.476;2022-08-07T15:39:59;1.20;;;1.10;;
16393;SDS011;8306;51.128;4.476;2022-08-07T15:42:35;2.00;;;1.70;;
16393;SDS011;8306;51.128;4.476;2022-08-07T15:45:03;1.83;;;1.63;;
16393;SDS011;8306;51.128;4.476;2022-08-07T15:47:35;1.70;;;1.60;;
16393;SDS011;8306;51.128;4.476;2022-08-07T15:50:02;1.63;;;1.50;;
16393;SDS011;8306;51.128;4.476;2022-08-07T15:52:28;1.60;;;1.53;;
16393;SDS011;8306;51.128;4.476;2022-08-07T15:54:54;1.53;;;1.43;;
16393;SDS011;8306;51.128;4.476;2022-08-07T15:57:25;2.23;;;1.40;;
16393;SDS011;8306;51.128;4.476;2022-08-07T15:59:50;1.50;;;1.40;;
16393;SDS011;8306;51.128;4.476;2022-08-07T16:02:21;3.07;;;1.70;;
16393;SDS011;8306;51.128;4.476;2022-08-07T16:04:46;1.63;;;1.53;;
16393;SDS011;8306;51.128;4.476;2022-08-07T16:07:12;1.70;;;1.60;;
16393;SDS011;8306;51.128;4.476;2022-08-07T16:09:48;2.30;;;1.47;;
16393;SDS011;8306;51.128;4.476;2022-08-07T16:15:52;1.63;;;1.53;;
16393;SDS011;8306;51.128;4.476;2022-08-07T16:20:39;1.60;;;1.50;;
16393;SDS011;8306;51.128;4.476;2022-08-07T16:33:51;1.53;;;1.43;;
16393;SDS011;8306;51.128;4.476;2022-08-07T16:44:10;1.00;;;1.00;;
16393;SDS011;8306;51.128;4.476;2022-08-07T16:49:46;1.70;;;1.60;;
16393;SDS011;8306;51.128;4.476;2022-08-07T16:58:00;2.50;;;2.30;;
16393;SDS011;8306;51.128;4.476;2022-08-07T17:00:40;7.80;;;3.23;;
16393;SDS011;8306;51.128;4.476;2022-08-07T17:03:18;2.47;;;1.87;;
16393;SDS011;8306;51.128;4.476;2022-08-07T17:08:43;1.57;;;1.47;;
16393;SDS011;8306;51.128;4.476;2022-08-07T17:11:17;1.53;;;1.40;;
16393;SDS011;8306;51.128;4.476;2022-08-07T17:13:49;2.87;;;1.60;;
16393;SDS011;8306;51.128;4.476;2022-08-07T17:16:21;1.30;;;1.20;;
16393;SDS011;8306;51.128;4.476;2022-08-07T17:21:22;1.87;;;1.70;;
16393;SDS011;8306;51.128;4.476;2022-08-07T17:31:33;2.63;;;1.93;;
16393;SDS011;8306;51.128;4.476;2022-08-07T17:34:14;2.43;;;2.03;;
16393;SDS011;8306;51.128;4.476;2022-08-07T17:36:41;2.13;;;1.53;;
16393;SDS011;8306;51.128;4.476;2022-08-07T17:42:00;1.70;;;1.43;;
16393;SDS011;8306;51.128;4.476;2022-08-07T17:44:28;2.17;;;1.40;;
16393;SDS011;8306;51.128;4.476;2022-08-07T17:47:05;1.73;;;1.50;;
16393;SDS011;8306;51.128;4.476;2022-08-07T17:49:31;5.40;;;1.70;;
16393;SDS011;8306;51.128;4.476;2022-08-07T17:51:56;1.93;;;1.60;;
16393;SDS011;8306;51.128;4.476;2022-08-07T17:54:36;1.87;;;1.67;;
16393;SDS011;8306;51.128;4.476;2022-08-07T17:57:04;4.87;;;1.50;;
16393;SDS011;8306;51.128;4.476;2022-08-07T18:04:46;5.03;;;1.70;;
16393;SDS011;8306;51.128;4.476;2022-08-07T18:07:23;1.80;;;1.50;;
16393;SDS011;8306;51.128;4.476;2022-08-07T18:09:43;3.10;;;1.70;;
16393;SDS011;8306;51.128;4.476;2022-08-07T18:15:01;1.60;;;1.50;;
16393;SDS011;8306;51.128;4.476;2022-08-07T18:23:16;2.40;;;1.40;;
16393;SDS011;8306;51.128;4.476;2022-08-07T18:25:02;2.00;;;1.80;;
16393;SDS011;8306;51.128;4.476;2022-08-07T18:28:05;2.87;;;1.47;;
16393;SDS011;8306;51.128;4.476;2022-08-07T18:30:06;2.73;;;1.40;;
16393;SDS011;8306;51.128;4.476;2022-08-07T18:32:51;1.60;;;1.50;;
16393;SDS011;8306;51.128;4.476;2022-08-07T18:38:59;3.57;;;1.63;;
16393;SDS011;8306;51.128;4.476;2022-08-07T18:41:03;1.80;;;1.50;;
16393;SDS011;8306;51.128;4.476;2022-08-07T18:46:04;3.87;;;1.83;;